createdAt,value
2023-02-06T00:01:36.106Z,87.18
2023-02-06T00:04:04.483Z,87.88
2023-02-06T00:06:32.265Z,86.82
2023-02-06T00:09:00.307Z,86.50
2023-02-06T00:11:27.939Z,85.26
2023-02-06T00:13:56.846Z,85.42
2023-02-06T00:16:30.574Z,84.65
2023-02-06T00:18:59.354Z,83.94
2023-02-06T00:21:28.346Z,86.19
2023-02-06T00:23:58.874Z,86.48
2023-02-06T00:26:27.575Z,86.02
2023-02-06T00:28:55.532Z,86.13
2023-02-06T00:31:25.042Z,84.62
2023-02-06T00:33:53.063Z,84.71
2023-02-06T00:36:20.912Z,84.59
2023-02-06T00:38:49.091Z,84.90
2023-02-06T00:41:16.684Z,84.10
2023-02-06T00:43:44.539Z,83.91
2023-02-06T00:46:13.161Z,83.34
2023-02-06T00:49:06.512Z,81.31
2023-02-06T00:51:36.455Z,80.92
2023-02-06T00:54:04.687Z,79.32
2023-02-06T00:56:32.372Z,79.73
2023-02-06T00:59:00.892Z,78.67
2023-02-06T01:01:29.190Z,78.58
2023-02-06T01:03:56.848Z,79.50
2023-02-06T01:06:24.904Z,79.58
2023-02-06T01:08:52.928Z,79.58
2023-02-06T01:11:23.308Z,79.92
2023-02-06T01:13:51.618Z,80.40
2023-02-06T01:16:23.021Z,81.30
2023-02-06T01:18:51.051Z,79.91
2023-02-06T01:21:22.789Z,78.42
2023-02-06T01:23:53.329Z,77.63
2023-02-06T01:26:24.177Z,78.48
2023-02-06T01:28:51.967Z,78.16
2023-02-06T01:31:28.235Z,78.39
2023-02-06T01:33:58.442Z,77.55
2023-02-06T01:36:26.542Z,78.77
2023-02-06T01:38:54.738Z,79.69
2023-02-06T01:41:25.592Z,79.91
2023-02-06T01:44:10.889Z,81.21
2023-02-06T01:46:41.208Z,81.61
2023-02-06T01:49:12.256Z,80.05
2023-02-06T01:51:41.142Z,79.71
2023-02-06T01:54:09.809Z,79.42
2023-02-06T01:56:44.123Z,81.21
2023-02-06T01:59:13.071Z,81.33
2023-02-06T02:01:42.129Z,81.32
2023-02-06T02:04:15.212Z,79.75
2023-02-06T02:06:43.013Z,79.30
2023-02-06T02:09:10.682Z,79.33
2023-02-06T02:11:42.153Z,79.32
2023-02-06T02:14:13.566Z,79.74
2023-02-06T02:17:07.955Z,79.63
2023-02-06T02:19:41.967Z,79.37
2023-02-06T02:22:44.482Z,81.14
2023-02-06T02:25:37.896Z,82.16
2023-02-06T02:28:43.971Z,82.94
2023-02-06T02:31:36.344Z,83.45
2023-02-06T02:34:14.600Z,83.42
2023-02-06T02:36:46.465Z,83.54
2023-02-06T02:39:30.251Z,83.85
2023-02-06T02:42:20.730Z,83.55
2023-02-06T02:44:55.589Z,82.97
2023-02-06T02:47:34.104Z,82.94
2023-02-06T02:50:03.854Z,83.55
2023-02-06T02:52:31.820Z,84.03
2023-02-06T02:55:00.678Z,83.67
2023-02-06T02:57:31.944Z,83.80
2023-02-06T03:00:01.468Z,84.67
2023-02-06T03:02:36.195Z,84.53
2023-02-06T03:05:08.736Z,83.30
2023-02-06T03:08:13.915Z,84.10
2023-02-06T03:10:44.991Z,83.68
2023-02-06T03:13:39.498Z,84.46
2023-02-06T03:16:07.728Z,83.86
2023-02-06T03:19:05.167Z,83.76
2023-02-06T03:21:35.838Z,86.34
2023-02-06T03:24:10.143Z,86.85
2023-02-06T03:26:39.847Z,87.06
2023-02-06T03:29:12.805Z,87.74
2023-02-06T03:31:46.234Z,89.25
2023-02-06T03:34:40.577Z,90.82
2023-02-06T03:37:08.921Z,93.06
2023-02-06T03:39:36.752Z,93.40
2023-02-06T03:42:06.234Z,94.90
2023-02-06T03:44:39.501Z,98.07
2023-02-06T03:47:10.758Z,100.00
2023-02-06T03:49:41.693Z,100.00
2023-02-06T03:52:15.398Z,100.00
2023-02-06T03:54:49.883Z,100.00
2023-02-06T03:57:19.454Z,100.00
2023-02-06T03:59:48.129Z,100.00
2023-02-06T04:02:17.895Z,100.00
2023-02-06T04:04:46.248Z,100.00
2023-02-06T04:07:27.850Z,100.00
2023-02-06T04:09:56.720Z,100.00
2023-02-06T04:12:25.349Z,100.00
2023-02-06T04:14:53.293Z,100.00
2023-02-06T04:17:38.539Z,100.00
2023-02-06T04:20:09.177Z,100.00
2023-02-06T04:22:37.543Z,100.00
2023-02-06T04:25:06.881Z,100.00
2023-02-06T04:27:34.400Z,100.00
2023-02-06T04:30:02.083Z,100.00
2023-02-06T04:32:29.658Z,100.00
2023-02-06T04:34:57.629Z,100.00
2023-02-06T04:37:25.284Z,100.00
2023-02-06T04:39:52.821Z,100.00
2023-02-06T04:42:20.793Z,100.00
2023-02-06T04:44:48.294Z,100.00
2023-02-06T04:47:16.026Z,100.00
2023-02-06T04:49:43.628Z,100.00
2023-02-06T04:52:12.115Z,100.00
2023-02-06T04:54:40.069Z,100.00
2023-02-06T04:57:08.050Z,100.00
2023-02-06T04:59:35.515Z,100.00
2023-02-06T05:02:03.070Z,100.00
2023-02-06T05:04:30.682Z,100.00
2023-02-06T05:06:58.237Z,100.00
2023-02-06T05:09:25.885Z,100.00
2023-02-06T05:11:53.875Z,100.00
2023-02-06T05:14:23.249Z,100.00
2023-02-06T05:16:51.670Z,100.00
2023-02-06T05:19:19.182Z,100.00
2023-02-06T05:21:46.943Z,100.00
2023-02-06T05:24:15.062Z,100.00
2023-02-06T05:26:42.690Z,100.00
2023-02-06T05:29:11.058Z,100.00
2023-02-06T05:31:39.137Z,100.00
2023-02-06T05:34:06.839Z,100.00
2023-02-06T05:36:34.792Z,100.00
2023-02-06T05:39:02.296Z,100.00
2023-02-06T05:41:30.265Z,100.00
2023-02-06T05:43:57.835Z,100.00
2023-02-06T05:46:25.557Z,100.00
2023-02-06T05:48:53.200Z,100.00
2023-02-06T05:51:20.792Z,100.00
2023-02-06T05:53:48.396Z,100.00
2023-02-06T05:56:15.950Z,100.00
2023-02-06T05:58:43.495Z,100.00
2023-02-06T06:01:13.460Z,100.00
2023-02-06T06:03:47.117Z,100.00
2023-02-06T06:06:28.082Z,100.00
2023-02-06T06:08:58.267Z,100.00
2023-02-06T06:11:29.135Z,100.00
2023-02-06T06:13:56.731Z,100.00
2023-02-06T06:16:24.534Z,100.00
2023-02-06T06:18:52.251Z,100.00
2023-02-06T06:21:20.347Z,100.00
2023-02-06T06:23:48.001Z,100.00
2023-02-06T06:26:16.233Z,100.00
2023-02-06T06:28:44.183Z,100.00
2023-02-06T06:31:13.047Z,100.00
2023-02-06T06:33:41.524Z,100.00
2023-02-06T06:36:11.424Z,100.00
2023-02-06T06:38:40.444Z,100.00
2023-02-06T06:41:08.088Z,100.00
2023-02-06T06:43:36.230Z,100.00
2023-02-06T06:46:05.362Z,100.00
2023-02-06T06:48:34.370Z,100.00
2023-02-06T06:51:02.103Z,100.00
2023-02-06T06:53:30.692Z,100.00
2023-02-06T06:56:05.742Z,100.00
2023-02-06T06:58:33.745Z,100.00
2023-02-06T07:01:01.508Z,100.00
2023-02-06T07:03:29.093Z,100.00
2023-02-06T07:05:57.384Z,100.00
2023-02-06T07:08:25.078Z,100.00
2023-02-06T07:10:53.176Z,100.00
2023-02-06T07:13:20.876Z,100.00
2023-02-06T07:15:48.844Z,100.00
2023-02-06T07:18:16.962Z,100.00
2023-02-06T07:20:44.751Z,100.00
2023-02-06T07:23:12.614Z,100.00
2023-02-06T07:25:40.137Z,100.00
2023-02-06T07:28:08.476Z,100.00
2023-02-06T07:30:36.424Z,100.00
2023-02-06T07:33:05.714Z,100.00
2023-02-06T07:35:34.396Z,100.00
2023-02-06T07:38:02.744Z,100.00
2023-02-06T07:40:44.078Z,99.49
2023-02-06T07:43:14.085Z,97.77
2023-02-06T07:45:42.087Z,97.83
2023-02-06T07:48:10.480Z,100.00
2023-02-06T07:50:38.662Z,100.00
2023-02-06T07:53:07.927Z,100.00
2023-02-06T07:55:38.474Z,100.00
2023-02-06T07:58:06.555Z,99.27
2023-02-06T08:00:34.390Z,98.95
2023-02-06T08:03:01.952Z,98.95
2023-02-06T08:05:29.490Z,98.12
2023-02-06T08:07:57.641Z,96.72
2023-02-06T08:10:26.019Z,95.73
2023-02-06T08:12:53.610Z,95.18
2023-02-06T08:15:21.186Z,93.92
2023-02-06T08:17:48.801Z,92.34
2023-02-06T08:20:16.398Z,89.69
2023-02-06T08:22:44.057Z,87.71
2023-02-06T08:25:11.648Z,85.22
2023-02-06T08:27:39.681Z,83.48
2023-02-06T08:30:08.414Z,83.31
2023-02-06T08:32:36.427Z,81.08
2023-02-06T08:35:04.246Z,81.85
2023-02-06T08:37:32.757Z,78.15
2023-02-06T08:40:00.780Z,75.76
2023-02-06T08:42:28.418Z,74.56
2023-02-06T08:44:56.105Z,75.68
2023-02-06T08:47:23.697Z,73.20
2023-02-06T08:49:51.872Z,71.58
2023-02-06T08:52:19.642Z,69.80
2023-02-06T08:54:47.588Z,69.30
2023-02-06T08:57:15.112Z,68.61
2023-02-06T08:59:43.117Z,68.10
2023-02-06T09:02:11.877Z,64.41
2023-02-06T09:04:39.487Z,60.12
2023-02-06T09:07:07.948Z,60.58
2023-02-06T09:09:35.634Z,59.49
2023-02-06T09:12:05.289Z,61.16
2023-02-06T09:14:33.155Z,60.65
2023-02-06T09:17:01.776Z,61.32
2023-02-06T09:19:29.492Z,59.89
2023-02-06T09:21:57.455Z,60.21
2023-02-06T09:24:25.765Z,60.25
2023-02-06T09:26:59.943Z,57.87
2023-02-06T09:29:31.799Z,58.38
2023-02-06T09:32:00.128Z,57.07
2023-02-06T09:34:29.065Z,58.23
2023-02-06T09:36:58.054Z,59.19
2023-02-06T09:39:26.222Z,58.51
2023-02-06T09:41:59.997Z,57.41
2023-02-06T09:44:27.465Z,56.26
2023-02-06T09:47:02.506Z,55.14
2023-02-06T09:49:53.158Z,54.94
2023-02-06T09:52:52.358Z,54.41
2023-02-06T09:55:32.809Z,54.67
2023-02-06T09:58:27.418Z,55.33
2023-02-06T10:01:01.819Z,54.85
2023-02-06T10:03:41.550Z,55.16
2023-02-06T10:06:27.604Z,56.34
2023-02-06T10:09:04.666Z,54.29
2023-02-06T10:11:45.264Z,55.02
2023-02-06T10:14:43.705Z,55.91
2023-02-06T10:17:27.015Z,55.17
2023-02-06T10:19:54.661Z,55.97
2023-02-06T10:22:38.890Z,54.58
2023-02-06T10:25:25.071Z,54.93
2023-02-06T10:27:57.801Z,54.80
2023-02-06T10:30:55.530Z,54.93
2023-02-06T10:33:53.417Z,54.95
2023-02-06T10:36:37.267Z,55.29
2023-02-06T10:39:23.610Z,54.55
2023-02-06T10:42:00.456Z,54.86
2023-02-06T10:44:53.871Z,55.84
2023-02-06T10:47:41.716Z,54.95
2023-02-06T10:50:12.954Z,56.00
2023-02-06T10:52:41.358Z,55.24
2023-02-06T10:55:22.750Z,54.58
2023-02-06T10:58:11.817Z,54.13
2023-02-06T11:00:40.591Z,54.81
2023-02-06T11:03:15.904Z,54.99
2023-02-06T11:05:43.519Z,55.01
2023-02-06T11:08:21.127Z,55.50
2023-02-06T11:10:49.556Z,54.68
2023-02-06T11:13:30.549Z,53.73
2023-02-06T11:16:06.307Z,54.46
2023-02-06T11:18:37.110Z,55.93
2023-02-06T11:21:07.558Z,54.36
2023-02-06T11:23:36.033Z,53.33
2023-02-06T11:26:16.422Z,53.00
2023-02-06T11:29:08.866Z,53.68
2023-02-06T11:31:47.330Z,53.63
2023-02-06T11:34:24.380Z,54.20
2023-02-06T11:36:56.160Z,53.52
2023-02-06T11:39:23.879Z,52.98
2023-02-06T11:42:05.508Z,53.11
2023-02-06T11:44:41.926Z,52.65
2023-02-06T11:47:33.943Z,53.48
2023-02-06T11:50:14.237Z,53.44
2023-02-06T11:52:46.756Z,52.59
2023-02-06T11:55:30.259Z,53.58
2023-02-06T11:58:22.341Z,51.92
2023-02-06T12:00:52.980Z,52.07
2023-02-06T12:03:44.698Z,52.52
2023-02-06T12:06:16.991Z,52.37
2023-02-06T12:08:51.474Z,52.70
2023-02-06T12:11:39.838Z,52.58
2023-02-06T12:14:19.255Z,52.36
2023-02-06T12:16:47.571Z,53.06
2023-02-06T12:19:31.718Z,51.41
2023-02-06T12:22:16.775Z,51.32
2023-02-06T12:24:49.234Z,50.91
2023-02-06T12:27:26.996Z,50.91
2023-02-06T12:30:07.788Z,51.64
2023-02-06T12:32:42.074Z,52.54
2023-02-06T12:35:33.967Z,52.08
2023-02-06T12:38:11.149Z,50.88
2023-02-06T12:40:57.468Z,50.58
2023-02-06T12:43:25.087Z,49.95
2023-02-06T12:45:59.913Z,51.76
2023-02-06T12:48:51.609Z,51.79
2023-02-06T12:51:27.962Z,51.15
2023-02-06T12:54:15.798Z,51.34
2023-02-06T12:56:55.644Z,49.98
2023-02-06T12:59:57.159Z,48.91
2023-02-06T13:02:50.825Z,50.32
2023-02-06T13:05:40.585Z,50.59
2023-02-06T13:08:15.365Z,49.80
2023-02-06T13:10:44.328Z,51.17
2023-02-06T13:13:31.484Z,50.99
2023-02-06T13:16:02.461Z,50.65
2023-02-06T13:18:44.689Z,50.64
2023-02-06T13:21:25.083Z,48.84
2023-02-06T13:24:01.754Z,49.42
2023-02-06T13:26:48.920Z,48.78
2023-02-06T13:29:28.678Z,49.38
2023-02-06T13:32:46.802Z,48.87
2023-02-06T13:35:21.022Z,49.78
2023-02-06T13:37:51.500Z,48.88
2023-02-06T13:40:26.675Z,48.46
2023-02-06T13:43:15.965Z,46.94
2023-02-06T13:45:53.784Z,46.38
2023-02-06T13:48:46.544Z,46.65
2023-02-06T13:51:51.017Z,45.04
2023-02-06T13:54:56.940Z,44.49
2023-02-06T13:57:55.594Z,46.96
2023-02-06T14:00:31.566Z,46.76
2023-02-06T14:03:13.413Z,44.76
2023-02-06T14:05:51.631Z,46.23
2023-02-06T14:08:54.113Z,46.73
2023-02-06T14:12:11.724Z,44.49
2023-02-06T14:15:07.049Z,43.55
2023-02-06T14:18:15.410Z,44.37
2023-02-06T14:21:02.751Z,44.13
2023-02-06T14:23:36.257Z,43.71
2023-02-06T14:26:26.507Z,44.82
2023-02-06T14:29:13.707Z,45.29
2023-02-06T14:32:13.527Z,47.17
2023-02-06T14:35:13.991Z,46.55
2023-02-06T14:37:51.949Z,46.82
2023-02-06T14:40:27.784Z,48.91
2023-02-06T14:43:04.333Z,50.65
2023-02-06T14:45:42.202Z,50.80
2023-02-06T14:48:43.579Z,50.88
2023-02-06T14:51:34.188Z,53.61
2023-02-06T14:54:07.511Z,53.61
2023-02-06T14:56:38.333Z,53.96
2023-02-06T14:59:18.673Z,55.42
2023-02-06T15:01:50.225Z,55.16
2023-02-06T15:04:29.977Z,54.90
2023-02-06T15:07:00.641Z,55.86
2023-02-06T15:09:38.987Z,57.28
2023-02-06T15:12:21.671Z,57.95
2023-02-06T15:15:13.906Z,57.41
2023-02-06T15:17:41.585Z,58.09
2023-02-06T15:20:25.237Z,58.33
2023-02-06T15:23:02.153Z,59.27
2023-02-06T15:26:00.985Z,59.61
2023-02-06T15:28:31.987Z,59.64
2023-02-06T15:31:01.791Z,60.45
2023-02-06T15:33:33.167Z,60.76
2023-02-06T15:36:04.452Z,59.87
2023-02-06T15:38:34.434Z,61.44
2023-02-06T15:41:07.324Z,63.53
2023-02-06T15:43:36.247Z,62.70
2023-02-06T15:46:06.072Z,62.47
2023-02-06T15:48:57.503Z,62.36
2023-02-06T15:51:29.441Z,63.19
2023-02-06T15:54:24.617Z,62.85
2023-02-06T15:57:08.363Z,63.79
2023-02-06T15:59:40.186Z,64.33
2023-02-06T16:02:23.025Z,63.69
2023-02-06T16:04:54.369Z,64.01
2023-02-06T16:07:25.583Z,64.70
2023-02-06T16:09:59.448Z,66.00
2023-02-06T16:12:32.188Z,65.60
2023-02-06T16:15:02.259Z,64.54
2023-02-06T16:17:41.234Z,67.34
2023-02-06T16:20:34.040Z,68.76
2023-02-06T16:23:23.893Z,67.32
2023-02-06T16:26:13.864Z,67.43
2023-02-06T16:29:03.363Z,67.74
2023-02-06T16:31:35.751Z,67.04
2023-02-06T16:34:29.516Z,67.85
2023-02-06T16:36:57.385Z,68.52
2023-02-06T16:39:25.390Z,67.61
2023-02-06T16:41:54.210Z,68.92
2023-02-06T16:44:22.706Z,68.86
2023-02-06T16:46:52.237Z,69.41
2023-02-06T16:49:22.696Z,69.35
2023-02-06T16:51:53.604Z,68.23
2023-02-06T16:54:28.814Z,69.92
2023-02-06T16:57:01.622Z,70.57
2023-02-06T16:59:29.877Z,71.56
2023-02-06T17:01:58.294Z,72.96
2023-02-06T17:04:25.967Z,72.06
2023-02-06T17:06:53.982Z,70.34
2023-02-06T17:09:21.619Z,71.28
2023-02-06T17:11:49.154Z,71.55
2023-02-06T17:14:18.865Z,71.96
2023-02-06T17:16:46.665Z,72.81
2023-02-06T17:19:15.584Z,73.72
2023-02-06T17:21:44.181Z,73.32
2023-02-06T17:24:11.699Z,74.67
2023-02-06T17:26:39.686Z,75.33
2023-02-06T17:29:08.619Z,75.51
2023-02-06T17:31:36.222Z,74.99
2023-02-06T17:34:04.333Z,74.29
2023-02-06T17:36:33.857Z,74.94
2023-02-06T17:39:02.206Z,76.75
2023-02-06T17:41:31.380Z,77.27
2023-02-06T17:43:59.416Z,78.22
2023-02-06T17:46:27.513Z,79.21
2023-02-06T17:48:55.946Z,79.63
2023-02-06T17:51:24.536Z,80.05
2023-02-06T17:53:52.679Z,79.09
2023-02-06T17:56:21.053Z,79.74
2023-02-06T17:58:49.749Z,78.67
2023-02-06T18:01:22.862Z,79.76
2023-02-06T18:03:52.140Z,80.67
2023-02-06T18:06:20.692Z,81.01
2023-02-06T18:08:49.102Z,79.83
2023-02-06T18:11:19.816Z,80.94
2023-02-06T18:13:50.112Z,80.45
2023-02-06T18:16:21.331Z,82.35
2023-02-06T18:18:50.357Z,80.88
2023-02-06T18:21:20.053Z,82.22
2023-02-06T18:23:49.092Z,83.97
2023-02-06T18:26:17.728Z,83.02
2023-02-06T18:28:45.682Z,83.32
2023-02-06T18:31:31.005Z,84.55
2023-02-06T18:33:59.972Z,84.58
2023-02-06T18:36:28.124Z,84.59
2023-02-06T18:38:57.600Z,85.48
2023-02-06T18:41:43.944Z,86.35
2023-02-06T18:44:12.760Z,86.06
2023-02-06T18:46:40.733Z,86.67
2023-02-06T18:49:09.497Z,86.49
2023-02-06T18:51:37.076Z,86.72
2023-02-06T18:54:05.403Z,88.42
2023-02-06T18:56:34.408Z,86.97
2023-02-06T18:59:04.006Z,88.00
2023-02-06T19:01:33.282Z,88.00
2023-02-06T19:04:01.559Z,88.50
2023-02-06T19:06:35.591Z,89.46
2023-02-06T19:09:07.151Z,89.29
2023-02-06T19:11:36.649Z,89.16
2023-02-06T19:14:05.771Z,88.94
2023-02-06T19:16:35.527Z,88.42
2023-02-06T19:19:03.628Z,87.91
2023-02-06T19:21:31.972Z,88.48
2023-02-06T19:24:00.804Z,87.91
2023-02-06T19:26:29.016Z,88.03
2023-02-06T19:28:57.847Z,87.04
2023-02-06T19:31:26.582Z,87.65
2023-02-06T19:33:59.079Z,85.96
2023-02-06T19:36:28.736Z,86.65
2023-02-06T19:38:58.992Z,88.45
2023-02-06T19:41:29.734Z,88.04
2023-02-06T19:44:02.302Z,87.73
2023-02-06T19:46:30.561Z,88.09
2023-02-06T19:48:58.592Z,88.41
2023-02-06T19:51:33.857Z,90.06
2023-02-06T19:54:02.487Z,90.85
2023-02-06T19:56:34.696Z,91.34
2023-02-06T19:59:09.923Z,91.36
2023-02-06T20:01:38.055Z,90.16
2023-02-06T20:04:06.129Z,91.16
2023-02-06T20:06:35.279Z,91.13
2023-02-06T20:09:05.507Z,92.24
2023-02-06T20:11:33.617Z,93.52
2023-02-06T20:14:01.889Z,92.51
2023-02-06T20:16:34.580Z,92.69
2023-02-06T20:19:07.572Z,93.37
2023-02-06T20:21:39.338Z,93.62
2023-02-06T20:24:15.032Z,93.74
2023-02-06T20:26:43.304Z,93.10
2023-02-06T20:29:24.373Z,91.91
2023-02-06T20:31:53.902Z,93.80
2023-02-06T20:34:22.315Z,93.52
2023-02-06T20:36:51.402Z,93.55
2023-02-06T20:39:19.633Z,92.30
2023-02-06T20:41:49.612Z,91.23
2023-02-06T20:44:18.781Z,91.42
2023-02-06T20:46:47.019Z,91.66
2023-02-06T20:49:18.709Z,92.19
2023-02-06T20:51:46.847Z,92.32
2023-02-06T20:54:15.568Z,93.09
2023-02-06T20:56:43.945Z,93.05
2023-02-06T20:59:14.990Z,92.75
2023-02-06T21:01:43.579Z,91.52
2023-02-06T21:04:14.560Z,90.54
2023-02-06T21:06:43.238Z,90.45
2023-02-06T21:09:12.120Z,90.33
2023-02-06T21:11:44.226Z,90.05
2023-02-06T21:14:13.898Z,90.47
2023-02-06T21:16:43.828Z,88.94
2023-02-06T21:19:14.273Z,89.15
2023-02-06T21:21:44.997Z,89.38
2023-02-06T21:24:15.417Z,90.33
2023-02-06T21:26:43.795Z,88.52
2023-02-06T21:29:13.948Z,87.43
2023-02-06T21:31:42.250Z,87.75
2023-02-06T21:34:21.260Z,89.15
2023-02-06T21:36:49.717Z,89.71
2023-02-06T21:39:21.250Z,87.78
2023-02-06T21:41:53.879Z,86.58
2023-02-06T21:44:26.585Z,87.17
2023-02-06T21:46:56.205Z,87.33
2023-02-06T21:49:24.615Z,88.64
2023-02-06T21:51:53.223Z,88.47
2023-02-06T21:54:20.946Z,87.90
2023-02-06T21:56:49.137Z,88.33
2023-02-06T21:59:17.086Z,88.03
2023-02-06T22:01:45.391Z,87.81
2023-02-06T22:04:13.313Z,87.79
2023-02-06T22:06:41.990Z,88.81
2023-02-06T22:09:15.263Z,88.45
2023-02-06T22:11:43.834Z,87.13
2023-02-06T22:14:14.815Z,88.35
2023-02-06T22:16:42.791Z,88.71
2023-02-06T22:19:11.022Z,87.80
2023-02-06T22:21:39.086Z,86.67
2023-02-06T22:24:09.248Z,87.13
2023-02-06T22:26:38.947Z,87.93
2023-02-06T22:29:10.007Z,87.73
2023-02-06T22:31:40.405Z,88.09
2023-02-06T22:34:11.887Z,89.21
2023-02-06T22:36:39.935Z,88.94
2023-02-06T22:39:10.398Z,89.84
2023-02-06T22:41:42.789Z,90.49
2023-02-06T22:44:16.253Z,89.79
2023-02-06T22:46:46.720Z,91.25
2023-02-06T22:49:14.737Z,91.82
2023-02-06T22:51:43.455Z,92.13
2023-02-06T22:54:12.622Z,92.82
2023-02-06T22:56:43.055Z,92.95
2023-02-06T22:59:12.219Z,92.08
2023-02-06T23:01:45.184Z,91.66
2023-02-06T23:04:17.642Z,92.09
2023-02-06T23:06:47.076Z,92.63
2023-02-06T23:09:27.536Z,92.44
2023-02-06T23:11:58.481Z,92.94
2023-02-06T23:14:28.516Z,94.00
2023-02-06T23:16:56.872Z,93.44
2023-02-06T23:19:25.184Z,93.95
2023-02-06T23:21:52.806Z,93.67
2023-02-06T23:24:21.100Z,94.31
2023-02-06T23:26:51.446Z,93.94
2023-02-06T23:29:20.962Z,93.54
2023-02-06T23:31:49.556Z,93.36
2023-02-06T23:34:18.896Z,92.89
2023-02-06T23:36:46.742Z,92.97
2023-02-06T23:39:14.361Z,92.89
2023-02-06T23:41:42.437Z,92.00
2023-02-06T23:44:10.751Z,92.04
2023-02-06T23:46:40.145Z,92.74
2023-02-06T23:49:09.229Z,93.07
2023-02-06T23:51:38.187Z,93.22
2023-02-06T23:54:07.618Z,92.97
2023-02-06T23:56:36.561Z,92.35
2023-02-06T23:59:06.421Z,92.96
